Elvira+3 — 8598 — position and weather

sailwx.info

Track history (hours):
 
Tides and Currents Weather Stations Pressure Air Temp Water Temp Dewpoint Dewpoint Depression Visibility Wind Speed Wind Dir Waves Ship Positions

Elvira+3

Last reported at 2017-Dec-07 18:57 UTC. Time now 2017-Dec-12 04:43 UTC.
Position N 44°16' E 028°07'.

Length 165 m.

Type: Cargo ship. MMSI: 238493940.

Date/timePositionNaut miles runAvg speedWind from/ knotsBaromVisibWave heightAir tempDewpointWater temp
2017-Dec-07 18:57N 44°16' E 028°07'3 4.6
2017-Dec-07 18:24N 44°16' E 028°11'2 4.7
2017-Dec-07 18:00N 44°15' E 028°13'3 4.6
2017-Dec-07 17:25N 44°15' E 028°17'2 4.6
2017-Dec-07 16:58N 44°15' E 028°20'2 4.5
2017-Dec-07 16:29N 44°14' E 028°22'3 4.6
2017-Dec-07 15:50N 44°11' E 028°24'9 4.0
2017-Dec-07 13:41N 44°06' E 028°34'1 4.6
2017-Dec-07 13:31N 44°06' E 028°35'2 3.4
2017-Dec-07 13:01N 44°06' E 028°37'0 0.1
2017-Dec-07 12:31N 44°06' E 028°37'1 1.7
2017-Dec-07 12:01N 44°06' E 028°38'1 2.1
2017-Dec-07 11:31N 44°07' E 028°39'0 0.4
2017-Dec-07 11:01N 44°07' E 028°39'0 0.0
2017-Dec-07 10:31N 44°07' E 028°39'0 0.0
2017-Dec-07 10:01N 44°07' E 028°39'0 0.0
2017-Dec-07 09:31N 44°07' E 028°39'0 0.0
2017-Dec-07 09:01N 44°07' E 028°39'0 0.0
2017-Dec-07 08:31N 44°07' E 028°39'0 0.0
2017-Dec-07 08:01N 44°07' E 028°39'0 0.0
2017-Dec-07 07:31N 44°07' E 028°39'0 0.0
2017-Dec-07 07:01N 44°07' E 028°39'0 0.0
2017-Dec-07 06:30N 44°07' E 028°39'0 0.0
2017-Dec-07 06:01N 44°07' E 028°39'0 0.0
2017-Dec-07 05:30N 44°07' E 028°39'0 0.0
2017-Dec-07 05:01N 44°07' E 028°39'0 0.0
2017-Dec-07 04:31N 44°07' E 028°39'0 0.0
2017-Dec-07 04:01N 44°07' E 028°39'0 0.0
2017-Dec-07 03:30N 44°07' E 028°39'0 0.0
2017-Dec-07 03:01N 44°07' E 028°39'0 0.0
2017-Dec-07 02:31N 44°07' E 028°39'0 0.0
2017-Dec-07 02:01N 44°07' E 028°39'0 0.0
2017-Dec-07 01:31N 44°07' E 028°39'0 0.0
2017-Dec-07 01:00N 44°07' E 028°39'1 2.5
2017-Dec-07 00:31N 44°06' E 028°40'0 0.0
2017-Dec-07 00:01N 44°06' E 028°40'0 0.0
2017-Dec-06 23:31N 44°06' E 028°40'0 0.0
2017-Dec-06 23:01N 44°06' E 028°40'0 0.0
2017-Dec-06 22:31N 44°06' E 028°40'0 0.0
2017-Dec-06 22:01N 44°06' E 028°40'0 0.0
2017-Dec-06 21:31N 44°06' E 028°40'0 0.0
2017-Dec-06 21:01N 44°06' E 028°40'  
2017-Dec-04 10:31N 44°07' E 028°39'0 0.0
2017-Dec-04 10:01N 44°07' E 028°39'0 0.0
2017-Dec-04 09:31N 44°07' E 028°39'0 0.0
2017-Dec-04 09:00N 44°07' E 028°39'0 0.0
2017-Dec-04 08:30N 44°07' E 028°39'0 0.0
2017-Dec-04 08:01N 44°07' E 028°39'0 0.0
2017-Dec-04 07:31N 44°07' E 028°39'0 0.0
2017-Dec-04 07:01N 44°07' E 028°39'0 0.0
2017-Dec-04 06:30N 44°07' E 028°39'0 0.0
2017-Dec-04 06:01N 44°07' E 028°39'0 0.0
2017-Dec-04 05:31N 44°07' E 028°39'0 0.0
2017-Dec-04 05:01N 44°07' E 028°39'0 0.0
2017-Dec-04 04:31N 44°07' E 028°39'0 0.0
2017-Dec-04 04:00N 44°07' E 028°39'0 0.0
2017-Dec-04 03:31N 44°07' E 028°39'0 0.0
2017-Dec-04 03:01N 44°07' E 028°39'0 0.0
2017-Dec-04 02:31N 44°07' E 028°39'0 0.0
2017-Dec-04 02:01N 44°07' E 028°39'0 0.0
2017-Dec-04 01:31N 44°07' E 028°39'0 0.0
2017-Dec-04 01:01N 44°07' E 028°39'0 0.0
2017-Dec-04 00:31N 44°07' E 028°39'0 0.0
2017-Dec-04 00:01N 44°07' E 028°39'0 0.0
2017-Dec-03 23:31N 44°07' E 028°39'0 0.0
2017-Dec-03 23:01N 44°07' E 028°39'0 0.0
2017-Dec-03 22:30N 44°07' E 028°39'0 0.0
2017-Dec-03 22:00N 44°07' E 028°39'0 0.0
2017-Dec-03 21:31N 44°07' E 028°39'0 0.0
2017-Dec-03 21:01N 44°07' E 028°39'0 0.0
2017-Dec-03 20:31N 44°07' E 028°39'0 0.0
2017-Dec-03 20:01N 44°07' E 028°39'0 0.0
2017-Dec-03 19:31N 44°07' E 028°39'0 0.0
2017-Dec-03 19:01N 44°07' E 028°39'0 0.0
2017-Dec-03 18:31N 44°07' E 028°39'0 0.0
2017-Dec-03 18:01N 44°07' E 028°39'0 0.0
2017-Dec-03 17:30N 44°07' E 028°39'0 0.0
2017-Dec-03 17:01N 44°07' E 028°39'0 0.0
2017-Dec-03 16:31N 44°07' E 028°39'0 0.0
2017-Dec-03 16:01N 44°07' E 028°39'0 0.0
2017-Dec-03 15:30N 44°07' E 028°39'0 0.0
2017-Dec-03 15:01N 44°07' E 028°39'0 0.0
2017-Dec-03 14:31N 44°07' E 028°39'0 0.0
2017-Dec-03 14:01N 44°07' E 028°39'0 0.0
2017-Dec-03 13:30N 44°07' E 028°39'0 0.0
2017-Dec-03 13:01N 44°07' E 028°39'0 0.0
2017-Dec-03 12:31N 44°07' E 028°39'0 0.0
2017-Dec-03 12:01N 44°07' E 028°39'0 0.0
2017-Dec-03 11:30N 44°07' E 028°39'1 1.2
2017-Dec-03 11:01N 44°06' E 028°39'0 0.0
2017-Dec-03 10:31N 44°06' E 028°39'0 0.0
2017-Dec-03 10:01N 44°06' E 028°39'0 0.0
2017-Dec-03 09:31N 44°06' E 028°39'0 0.0
2017-Dec-03 09:01N 44°06' E 028°39'0 0.0
2017-Dec-03 08:31N 44°06' E 028°39'0 0.0
2017-Dec-03 08:01N 44°06' E 028°39'0 0.0
2017-Dec-03 07:31N 44°06' E 028°39'0 0.0
2017-Dec-03 07:00N 44°06' E 028°39'0 0.0
2017-Dec-03 06:30N 44°06' E 028°39'0 0.0
2017-Dec-03 06:01N 44°06' E 028°39'0 0.0
2017-Dec-03 05:31N 44°06' E 028°39'0 0.0
2017-Dec-03 05:01N 44°06' E 028°39'0 0.0
2017-Dec-03 04:30N 44°06' E 028°39'0 0.0
2017-Dec-03 04:01N 44°06' E 028°39'0 0.0
2017-Dec-03 03:31N 44°06' E 028°39'0 0.0
2017-Dec-03 03:01N 44°06' E 028°39'0 0.0
2017-Dec-03 02:31N 44°06' E 028°39'0 0.0
2017-Dec-03 02:01N 44°06' E 028°39'0 0.0
2017-Dec-03 01:30N 44°06' E 028°39'0 0.0
2017-Dec-03 01:01N 44°06' E 028°39'0 0.0
2017-Dec-03 00:31N 44°06' E 028°39'0 0.0
2017-Dec-03 00:01N 44°06' E 028°39'0 0.0
2017-Dec-02 23:31N 44°06' E 028°39'0 0.0
2017-Dec-02 23:01N 44°06' E 028°39'0 0.0
2017-Dec-02 22:31N 44°06' E 028°39'0 0.0
2017-Dec-02 22:01N 44°06' E 028°39'0 0.0
2017-Dec-02 21:31N 44°06' E 028°39'0 0.0
2017-Dec-02 21:01N 44°06' E 028°39'0 0.0
2017-Dec-02 20:31N 44°06' E 028°39'0 0.0
2017-Dec-02 20:01N 44°06' E 028°39'0 0.0
2017-Dec-02 19:30N 44°06' E 028°39'0 0.0
2017-Dec-02 19:01N 44°06' E 028°39'0 0.0
2017-Dec-02 18:30N 44°06' E 028°39'0 0.0
2017-Dec-02 18:01N 44°06' E 028°39'0 0.0
2017-Dec-02 17:31N 44°06' E 028°39'0 0.0
2017-Dec-02 17:01N 44°06' E 028°39'0 0.0
2017-Dec-02 16:31N 44°06' E 028°39'0 0.0
2017-Dec-02 16:01N 44°06' E 028°39'0 0.0
2017-Dec-02 15:31N 44°06' E 028°39'0 0.0
2017-Dec-02 15:01N 44°06' E 028°39'0 0.0
2017-Dec-02 14:31N 44°06' E 028°39'0 0.0
2017-Dec-02 14:01N 44°06' E 028°39'0 0.0
2017-Dec-02 13:31N 44°06' E 028°39'0 0.0
2017-Dec-02 13:01N 44°06' E 028°39'0 0.0
2017-Dec-02 12:31N 44°06' E 028°39'0 0.0
2017-Dec-02 12:01N 44°06' E 028°39'0 0.0
2017-Dec-02 11:31N 44°06' E 028°39'0 0.0
2017-Dec-02 11:01N 44°06' E 028°39'0 0.0
2017-Dec-02 10:30N 44°06' E 028°39'0 0.0
2017-Dec-02 10:01N 44°06' E 028°39'0 0.0
2017-Dec-02 09:31N 44°06' E 028°39'0 0.0
2017-Dec-02 09:01N 44°06' E 028°39'0 0.0
2017-Dec-02 08:31N 44°06' E 028°39'0 0.0
2017-Dec-02 08:00N 44°06' E 028°39'0 0.0
2017-Dec-02 07:31N 44°06' E 028°39'0 0.0
2017-Dec-02 07:01N 44°06' E 028°39'0 0.0
2017-Dec-02 06:31N 44°06' E 028°39'0 0.0
2017-Dec-02 06:01N 44°06' E 028°39'0 0.0
2017-Dec-02 05:31N 44°06' E 028°39'0 0.0
2017-Dec-02 05:01N 44°06' E 028°39'0 0.0
2017-Dec-02 04:31N 44°06' E 028°39'0 0.0
2017-Dec-02 04:01N 44°06' E 028°39'0 0.0
2017-Dec-02 03:31N 44°06' E 028°39'0 0.0
2017-Dec-02 03:01N 44°06' E 028°39'0 0.0
2017-Dec-02 02:30N 44°06' E 028°39'0 0.0
2017-Dec-02 02:01N 44°06' E 028°39'0 0.0
2017-Dec-02 01:31N 44°06' E 028°39'0 0.0
2017-Dec-02 01:01N 44°06' E 028°39'0 0.0
2017-Dec-02 00:31N 44°06' E 028°39'0 0.0
2017-Dec-02 00:01N 44°06' E 028°39'0 0.0
2017-Dec-01 23:31N 44°06' E 028°39'0 0.0
2017-Dec-01 23:00N 44°06' E 028°39'0 0.0
2017-Dec-01 22:31N 44°06' E 028°39'0 0.0
2017-Dec-01 22:01N 44°06' E 028°39'0 0.0
2017-Dec-01 21:31N 44°06' E 028°39'0 0.0
2017-Dec-01 21:01N 44°06' E 028°39'1 1.1
2017-Dec-01 20:30N 44°07' E 028°39'0 0.0
2017-Dec-01 20:01N 44°07' E 028°39'0 0.0
2017-Dec-01 19:31N 44°07' E 028°39'0 0.0
2017-Dec-01 19:01N 44°07' E 028°39'0 0.0
2017-Dec-01 18:31N 44°07' E 028°39'0 0.0
2017-Dec-01 18:01N 44°07' E 028°39'0 0.0
2017-Dec-01 17:31N 44°07' E 028°39'0 0.0
2017-Dec-01 17:00N 44°07' E 028°39'0 0.0
2017-Dec-01 16:31N 44°07' E 028°39'0 0.0
2017-Dec-01 16:01N 44°07' E 028°39'0 0.0
2017-Dec-01 15:31N 44°07' E 028°39'0 0.0
2017-Dec-01 15:01N 44°07' E 028°39'0 0.0
2017-Dec-01 14:30N 44°07' E 028°39'0 0.0
2017-Dec-01 14:01N 44°07' E 028°39'0 0.0
2017-Dec-01 13:30N 44°07' E 028°39'0 0.0
2017-Dec-01 13:01N 44°07' E 028°39'0 0.0
2017-Dec-01 12:30N 44°07' E 028°39'0 0.0
2017-Dec-01 12:01N 44°07' E 028°39'0 0.0
2017-Dec-01 11:30N 44°07' E 028°39'0 0.0
2017-Dec-01 11:01N 44°07' E 028°39'0 0.0
2017-Dec-01 10:31N 44°07' E 028°39'0 0.0
2017-Dec-01 10:00N 44°07' E 028°39'0 0.0
2017-Dec-01 09:31N 44°07' E 028°39'0 0.0
2017-Dec-01 09:01N 44°07' E 028°39'0 0.0
2017-Dec-01 08:31N 44°07' E 028°39'0 0.0
2017-Dec-01 08:01N 44°07' E 028°39'0 0.0
2017-Dec-01 07:30N 44°07' E 028°39'0 0.0
2017-Dec-01 07:01N 44°07' E 028°39'0 0.0
2017-Dec-01 06:31N 44°07' E 028°39'0 0.0
2017-Dec-01 06:01N 44°07' E 028°39'0 0.0
2017-Dec-01 05:30N 44°07' E 028°39'0 0.0
2017-Dec-01 05:01N 44°07' E 028°39'0 0.0
2017-Dec-01 04:31N 44°07' E 028°39'0 0.0
2017-Dec-01 04:01N 44°07' E 028°39'0 0.0
2017-Dec-01 03:31N 44°07' E 028°39'0 0.0
2017-Dec-01 03:01N 44°07' E 028°39'0 0.0
2017-Dec-01 02:31N 44°07' E 028°39'0 0.0
2017-Dec-01 02:01N 44°07' E 028°39'0 0.0
2017-Dec-01 01:30N 44°07' E 028°39'0 0.0
2017-Dec-01 01:01N 44°07' E 028°39'0 0.0
2017-Dec-01 00:31N 44°07' E 028°39'0 0.0
2017-Dec-01 00:01N 44°07' E 028°39'0 0.0
2017-Nov-30 23:31N 44°07' E 028°39'0 0.0
2017-Nov-30 23:01N 44°07' E 028°39'0 0.0
2017-Nov-30 22:31N 44°07' E 028°39'0 0.0
2017-Nov-30 22:01N 44°07' E 028°39'0 0.0
2017-Nov-30 21:31N 44°07' E 028°39'0 0.0
2017-Nov-30 21:01N 44°07' E 028°39'0 0.0
2017-Nov-30 20:31N 44°07' E 028°39'0 0.0
2017-Nov-30 20:01N 44°07' E 028°39'0 0.0
2017-Nov-30 19:31N 44°07' E 028°39'0 0.0
2017-Nov-30 19:01N 44°07' E 028°39'0 0.0
2017-Nov-30 18:30N 44°07' E 028°39'0 0.0
2017-Nov-30 18:00N 44°07' E 028°39'0 0.0
2017-Nov-30 17:31N 44°07' E 028°39'0 0.0
2017-Nov-30 17:00N 44°07' E 028°39'0 0.0
2017-Nov-30 16:30N 44°07' E 028°39'0 0.0
2017-Nov-30 16:01N 44°07' E 028°39'0 0.0
2017-Nov-30 15:30N 44°07' E 028°39'0 0.0
2017-Nov-30 15:01N 44°07' E 028°39'0 0.0
2017-Nov-30 14:31N 44°07' E 028°39'0 0.0
2017-Nov-30 14:00N 44°07' E 028°39'0 0.0
2017-Nov-30 13:31N 44°07' E 028°39'0 0.0
2017-Nov-30 13:01N 44°07' E 028°39'0 0.0
2017-Nov-30 12:31N 44°07' E 028°39'0 0.0
2017-Nov-30 12:01N 44°07' E 028°39'0 0.0
2017-Nov-30 11:31N 44°07' E 028°39'0 0.0
2017-Nov-30 11:01N 44°07' E 028°39'0 0.0
2017-Nov-30 10:31N 44°07' E 028°39'0 0.0
2017-Nov-30 10:00N 44°07' E 028°39'0 0.0
2017-Nov-30 09:31N 44°07' E 028°39'0 0.0
2017-Nov-30 09:01N 44°07' E 028°39'0 0.0
2017-Nov-30 08:31N 44°07' E 028°39'0 0.0
2017-Nov-30 08:01N 44°07' E 028°39'0 0.0
2017-Nov-30 07:31N 44°07' E 028°39'0 0.0
2017-Nov-30 07:01N 44°07' E 028°39'0 0.0
2017-Nov-30 06:31N 44°07' E 028°39'0 0.0
2017-Nov-30 06:01N 44°07' E 028°39'0 0.0
2017-Nov-30 05:31N 44°07' E 028°39'0 0.0
2017-Nov-30 05:01N 44°07' E 028°39'0 0.0
2017-Nov-30 04:31N 44°07' E 028°39'0 0.0
2017-Nov-30 04:00N 44°07' E 028°39'0 0.0
2017-Nov-30 03:31N 44°07' E 028°39'0 0.0
2017-Nov-30 03:01N 44°07' E 028°39'0 0.0
2017-Nov-30 02:31N 44°07' E 028°39'0 0.0
2017-Nov-30 02:01N 44°07' E 028°39'0 0.0
2017-Nov-30 01:30N 44°07' E 028°39'0 0.0
2017-Nov-30 01:01N 44°07' E 028°39'0 0.0
2017-Nov-30 00:30N 44°07' E 028°39'0 0.0
2017-Nov-30 00:01N 44°07' E 028°39'0 0.0
2017-Nov-29 23:31N 44°07' E 028°39'0 0.0
2017-Nov-29 23:01N 44°07' E 028°39'0 0.0
2017-Nov-29 22:31N 44°07' E 028°39'0 0.0
2017-Nov-29 22:01N 44°07' E 028°39'0 0.0
2017-Nov-29 21:31N 44°07' E 028°39'0 0.0
2017-Nov-29 21:01N 44°07' E 028°39'0 0.0
2017-Nov-29 20:31N 44°07' E 028°39'0 0.0
2017-Nov-29 20:01N 44°07' E 028°39'0 0.0
2017-Nov-29 19:31N 44°07' E 028°39'0 0.0
2017-Nov-29 19:01N 44°07' E 028°39'0 0.0
2017-Nov-29 18:31N 44°07' E 028°39'0 0.0
2017-Nov-29 18:01N 44°07' E 028°39'0 0.0
2017-Nov-29 17:30N 44°07' E 028°39'0 0.0
2017-Nov-29 17:01N 44°07' E 028°39'0 0.0
2017-Nov-29 16:31N 44°07' E 028°39'0 0.0
2017-Nov-29 16:01N 44°07' E 028°39'0 0.0
2017-Nov-29 15:31N 44°07' E 028°39'0 0.0
2017-Nov-29 15:01N 44°07' E 028°39'0 0.0
2017-Nov-29 14:30N 44°07' E 028°39'0 0.0
2017-Nov-29 14:01N 44°07' E 028°39'0 0.0
2017-Nov-29 13:30N 44°07' E 028°39'0 0.0
2017-Nov-29 13:01N 44°07' E 028°39'0 0.0
2017-Nov-29 12:31N 44°07' E 028°39'0 0.0
2017-Nov-29 12:01N 44°07' E 028°39'0 0.0
2017-Nov-29 11:31N 44°07' E 028°39'0 0.0
2017-Nov-29 11:01N 44°07' E 028°39'0 0.0
2017-Nov-29 10:31N 44°07' E 028°39'0 0.0
2017-Nov-29 10:01N 44°07' E 028°39'0 0.0
2017-Nov-29 09:31N 44°07' E 028°39'0 0.0
2017-Nov-29 09:00N 44°07' E 028°39'0 0.0
2017-Nov-29 08:31N 44°07' E 028°39'0 0.0
2017-Nov-29 08:01N 44°07' E 028°39'0 0.0
2017-Nov-29 07:31N 44°07' E 028°39'0 0.0
2017-Nov-29 07:01N 44°07' E 028°39'0 0.0
2017-Nov-29 06:30N 44°07' E 028°39'0 0.0
2017-Nov-29 06:01N 44°07' E 028°39'0 0.0
2017-Nov-29 05:30N 44°07' E 028°39'0 0.0
2017-Nov-29 05:01N 44°07' E 028°39'0 0.0
2017-Nov-29 04:31N 44°07' E 028°39'0 0.0
2017-Nov-29 04:00N 44°07' E 028°39'0 0.0
2017-Nov-29 03:30N 44°07' E 028°39'0 0.0
2017-Nov-29 03:01N 44°07' E 028°39'0 0.0
2017-Nov-29 02:31N 44°07' E 028°39'0 0.0
2017-Nov-29 02:01N 44°07' E 028°39'0 0.0
2017-Nov-29 01:31N 44°07' E 028°39'0 0.0
2017-Nov-29 01:01N 44°07' E 028°39'0 0.0
2017-Nov-29 00:31N 44°07' E 028°39'0 0.0
2017-Nov-29 00:01N 44°07' E 028°39'0 0.0
2017-Nov-28 23:30N 44°07' E 028°39'0 0.0
2017-Nov-28 23:00N 44°07' E 028°39'0 0.0
2017-Nov-28 22:30N 44°07' E 028°39'0 0.0
2017-Nov-28 22:01N 44°07' E 028°39'0 0.0
2017-Nov-28 21:31N 44°07' E 028°39'0 0.0
2017-Nov-28 21:01N 44°07' E 028°39'0 0.0
2017-Nov-28 20:30N 44°07' E 028°39'0 0.0
2017-Nov-28 20:01N 44°07' E 028°39'0 0.0
2017-Nov-28 19:31N 44°07' E 028°39'0 0.0
2017-Nov-28 19:01N 44°07' E 028°39'0 0.0
2017-Nov-28 18:31N 44°07' E 028°39'0 0.0
2017-Nov-28 18:01N 44°07' E 028°39'0 0.0
2017-Nov-28 17:31N 44°07' E 028°39'0 0.0
2017-Nov-28 17:01N 44°07' E 028°39'0 0.0
2017-Nov-28 16:31N 44°07' E 028°39'0 0.0
2017-Nov-28 16:01N 44°07' E 028°39'0 0.0
2017-Nov-28 15:01N 44°07' E 028°39'0 0.0
2017-Nov-28 14:31N 44°07' E 028°39'0 0.0
2017-Nov-28 14:00N 44°07' E 028°39'0 0.0
2017-Nov-28 13:31N 44°07' E 028°39'0 0.0
2017-Nov-28 13:00N 44°07' E 028°39'0 0.0
2017-Nov-28 12:31N 44°07' E 028°39'0 0.0
2017-Nov-28 12:01N 44°07' E 028°39'0 0.0
2017-Nov-28 11:31N 44°07' E 028°39'0 0.0
2017-Nov-28 11:00N 44°07' E 028°39'0 0.0
2017-Nov-28 10:31N 44°07' E 028°39'0 0.0
2017-Nov-28 10:01N 44°07' E 028°39'0 0.0
2017-Nov-28 09:31N 44°07' E 028°39'0 0.0
2017-Nov-28 09:01N 44°07' E 028°39'0 0.0
2017-Nov-28 08:31N 44°07' E 028°39'0 0.0
2017-Nov-28 08:01N 44°07' E 028°39'0 0.0
2017-Nov-28 07:31N 44°07' E 028°39'0 0.0
2017-Nov-28 07:01N 44°07' E 028°39'0 0.0
2017-Nov-28 06:31N 44°07' E 028°39'0 0.0
2017-Nov-28 06:01N 44°07' E 028°39'0 0.0
2017-Nov-28 05:30N 44°07' E 028°39'0 0.0
2017-Nov-28 04:31N 44°07' E 028°39'0 0.0
2017-Nov-28 04:01N 44°07' E 028°39'0 0.0
2017-Nov-28 03:30N 44°07' E 028°39'0 0.0
2017-Nov-28 03:00N 44°07' E 028°39'0 0.0
2017-Nov-28 02:31N 44°07' E 028°39'0 0.0
2017-Nov-28 02:01N 44°07' E 028°39'0 0.0
2017-Nov-28 01:31N 44°07' E 028°39'0 0.0
2017-Nov-28 01:00N 44°07' E 028°39'0 0.0
2017-Nov-28 00:30N 44°07' E 028°39'0 0.0
2017-Nov-28 00:01N 44°07' E 028°39'0 0.0
2017-Nov-27 23:31N 44°07' E 028°39'0 0.0
2017-Nov-27 23:01N 44°07' E 028°39'0 0.0
2017-Nov-27 22:31N 44°07' E 028°39'0 0.0
2017-Nov-27 22:01N 44°07' E 028°39'0 0.0
2017-Nov-27 21:31N 44°07' E 028°39'0 0.0
2017-Nov-27 21:00N 44°07' E 028°39'0 0.0
2017-Nov-27 20:31N 44°07' E 028°39'0 0.0
2017-Nov-27 20:01N 44°07' E 028°39'0 0.0
2017-Nov-27 19:31N 44°07' E 028°39'0 0.0
2017-Nov-27 19:00N 44°07' E 028°39'  
Track history (hours):
 
Tides and Currents Weather Stations Pressure Air Temp Water Temp Dewpoint Dewpoint Depression Visibility Wind Speed Wind Dir Waves Ship Positions

Elvira+3

Last reported at 2017-Dec-07 18:57 UTC. Time now 2017-Dec-12 04:43 UTC.
Position N 44°16' E 028°07'.

Length 165 m.

Type: Cargo ship. MMSI: 238493940.

Date/timePositionNaut miles runAvg speedWind from/ knotsBaromVisibWave heightAir tempDewpointWater temp
2017-Dec-07 18:57N 44°16' E 028°07'3 4.6
2017-Dec-07 18:24N 44°16' E 028°11'2 4.7
2017-Dec-07 18:00N 44°15' E 028°13'3 4.6
2017-Dec-07 17:25N 44°15' E 028°17'2 4.6
2017-Dec-07 16:58N 44°15' E 028°20'2 4.5
2017-Dec-07 16:29N 44°14' E 028°22'3 4.6
2017-Dec-07 15:50N 44°11' E 028°24'9 4.0
2017-Dec-07 13:41N 44°06' E 028°34'1 4.6
2017-Dec-07 13:31N 44°06' E 028°35'2 3.4
2017-Dec-07 13:01N 44°06' E 028°37'0 0.1
2017-Dec-07 12:31N 44°06' E 028°37'1 1.7
2017-Dec-07 12:01N 44°06' E 028°38'1 2.1
2017-Dec-07 11:31N 44°07' E 028°39'0 0.4
2017-Dec-07 11:01N 44°07' E 028°39'0 0.0
2017-Dec-07 10:31N 44°07' E 028°39'0 0.0
2017-Dec-07 10:01N 44°07' E 028°39'0 0.0
2017-Dec-07 09:31N 44°07' E 028°39'0 0.0
2017-Dec-07 09:01N 44°07' E 028°39'0 0.0
2017-Dec-07 08:31N 44°07' E 028°39'0 0.0
2017-Dec-07 08:01N 44°07' E 028°39'0 0.0
2017-Dec-07 07:31N 44°07' E 028°39'0 0.0
2017-Dec-07 07:01N 44°07' E 028°39'0 0.0
2017-Dec-07 06:30N 44°07' E 028°39'0 0.0
2017-Dec-07 06:01N 44°07' E 028°39'0 0.0
2017-Dec-07 05:30N 44°07' E 028°39'0 0.0
2017-Dec-07 05:01N 44°07' E 028°39'0 0.0
2017-Dec-07 04:31N 44°07' E 028°39'0 0.0
2017-Dec-07 04:01N 44°07' E 028°39'0 0.0
2017-Dec-07 03:30N 44°07' E 028°39'0 0.0
2017-Dec-07 03:01N 44°07' E 028°39'0 0.0
2017-Dec-07 02:31N 44°07' E 028°39'0 0.0
2017-Dec-07 02:01N 44°07' E 028°39'0 0.0
2017-Dec-07 01:31N 44°07' E 028°39'0 0.0
2017-Dec-07 01:00N 44°07' E 028°39'1 2.5
2017-Dec-07 00:31N 44°06' E 028°40'0 0.0
2017-Dec-07 00:01N 44°06' E 028°40'0 0.0
2017-Dec-06 23:31N 44°06' E 028°40'0 0.0
2017-Dec-06 23:01N 44°06' E 028°40'0 0.0
2017-Dec-06 22:31N 44°06' E 028°40'0 0.0
2017-Dec-06 22:01N 44°06' E 028°40'0 0.0
2017-Dec-06 21:31N 44°06' E 028°40'0 0.0
2017-Dec-06 21:01N 44°06' E 028°40'  
2017-Dec-04 10:31N 44°07' E 028°39'0 0.0
2017-Dec-04 10:01N 44°07' E 028°39'0 0.0
2017-Dec-04 09:31N 44°07' E 028°39'0 0.0
2017-Dec-04 09:00N 44°07' E 028°39'0 0.0
2017-Dec-04 08:30N 44°07' E 028°39'0 0.0
2017-Dec-04 08:01N 44°07' E 028°39'0 0.0
2017-Dec-04 07:31N 44°07' E 028°39'0 0.0
2017-Dec-04 07:01N 44°07' E 028°39'0 0.0
2017-Dec-04 06:30N 44°07' E 028°39'0 0.0
2017-Dec-04 06:01N 44°07' E 028°39'0 0.0
2017-Dec-04 05:31N 44°07' E 028°39'0 0.0
2017-Dec-04 05:01N 44°07' E 028°39'0 0.0
2017-Dec-04 04:31N 44°07' E 028°39'0 0.0
2017-Dec-04 04:00N 44°07' E 028°39'0 0.0
2017-Dec-04 03:31N 44°07' E 028°39'0 0.0
2017-Dec-04 03:01N 44°07' E 028°39'0 0.0
2017-Dec-04 02:31N 44°07' E 028°39'0 0.0
2017-Dec-04 02:01N 44°07' E 028°39'0 0.0
2017-Dec-04 01:31N 44°07' E 028°39'0 0.0
2017-Dec-04 01:01N 44°07' E 028°39'0 0.0
2017-Dec-04 00:31N 44°07' E 028°39'0 0.0
2017-Dec-04 00:01N 44°07' E 028°39'0 0.0
2017-Dec-03 23:31N 44°07' E 028°39'0 0.0
2017-Dec-03 23:01N 44°07' E 028°39'0 0.0
2017-Dec-03 22:30N 44°07' E 028°39'0 0.0
2017-Dec-03 22:00N 44°07' E 028°39'0 0.0
2017-Dec-03 21:31N 44°07' E 028°39'0 0.0
2017-Dec-03 21:01N 44°07' E 028°39'0 0.0
2017-Dec-03 20:31N 44°07' E 028°39'0 0.0
2017-Dec-03 20:01N 44°07' E 028°39'0 0.0
2017-Dec-03 19:31N 44°07' E 028°39'0 0.0
2017-Dec-03 19:01N 44°07' E 028°39'0 0.0
2017-Dec-03 18:31N 44°07' E 028°39'0 0.0
2017-Dec-03 18:01N 44°07' E 028°39'0 0.0
2017-Dec-03 17:30N 44°07' E 028°39'0 0.0
2017-Dec-03 17:01N 44°07' E 028°39'0 0.0
2017-Dec-03 16:31N 44°07' E 028°39'0 0.0
2017-Dec-03 16:01N 44°07' E 028°39'0 0.0
2017-Dec-03 15:30N 44°07' E 028°39'0 0.0
2017-Dec-03 15:01N 44°07' E 028°39'0 0.0
2017-Dec-03 14:31N 44°07' E 028°39'0 0.0
2017-Dec-03 14:01N 44°07' E 028°39'0 0.0
2017-Dec-03 13:30N 44°07' E 028°39'0 0.0
2017-Dec-03 13:01N 44°07' E 028°39'0 0.0
2017-Dec-03 12:31N 44°07' E 028°39'0 0.0
2017-Dec-03 12:01N 44°07' E 028°39'0 0.0
2017-Dec-03 11:30N 44°07' E 028°39'1 1.2
2017-Dec-03 11:01N 44°06' E 028°39'0 0.0
2017-Dec-03 10:31N 44°06' E 028°39'0 0.0
2017-Dec-03 10:01N 44°06' E 028°39'0 0.0
2017-Dec-03 09:31N 44°06' E 028°39'0 0.0
2017-Dec-03 09:01N 44°06' E 028°39'0 0.0
2017-Dec-03 08:31N 44°06' E 028°39'0 0.0
2017-Dec-03 08:01N 44°06' E 028°39'0 0.0
2017-Dec-03 07:31N 44°06' E 028°39'0 0.0
2017-Dec-03 07:00N 44°06' E 028°39'0 0.0
2017-Dec-03 06:30N 44°06' E 028°39'0 0.0
2017-Dec-03 06:01N 44°06' E 028°39'0 0.0
2017-Dec-03 05:31N 44°06' E 028°39'0 0.0
2017-Dec-03 05:01N 44°06' E 028°39'0 0.0
2017-Dec-03 04:30N 44°06' E 028°39'0 0.0
2017-Dec-03 04:01N 44°06' E 028°39'0 0.0
2017-Dec-03 03:31N 44°06' E 028°39'0 0.0
2017-Dec-03 03:01N 44°06' E 028°39'0 0.0
2017-Dec-03 02:31N 44°06' E 028°39'0 0.0
2017-Dec-03 02:01N 44°06' E 028°39'0 0.0
2017-Dec-03 01:30N 44°06' E 028°39'0 0.0
2017-Dec-03 01:01N 44°06' E 028°39'0 0.0
2017-Dec-03 00:31N 44°06' E 028°39'0 0.0
2017-Dec-03 00:01N 44°06' E 028°39'0 0.0
2017-Dec-02 23:31N 44°06' E 028°39'0 0.0
2017-Dec-02 23:01N 44°06' E 028°39'0 0.0
2017-Dec-02 22:31N 44°06' E 028°39'0 0.0
2017-Dec-02 22:01N 44°06' E 028°39'0 0.0
2017-Dec-02 21:31N 44°06' E 028°39'0 0.0
2017-Dec-02 21:01N 44°06' E 028°39'0 0.0
2017-Dec-02 20:31N 44°06' E 028°39'0 0.0
2017-Dec-02 20:01N 44°06' E 028°39'0 0.0
2017-Dec-02 19:30N 44°06' E 028°39'0 0.0
2017-Dec-02 19:01N 44°06' E 028°39'0 0.0
2017-Dec-02 18:30N 44°06' E 028°39'0 0.0
2017-Dec-02 18:01N 44°06' E 028°39'0 0.0
2017-Dec-02 17:31N 44°06' E 028°39'0 0.0
2017-Dec-02 17:01N 44°06' E 028°39'0 0.0
2017-Dec-02 16:31N 44°06' E 028°39'0 0.0
2017-Dec-02 16:01N 44°06' E 028°39'0 0.0
2017-Dec-02 15:31N 44°06' E 028°39'0 0.0
2017-Dec-02 15:01N 44°06' E 028°39'0 0.0
2017-Dec-02 14:31N 44°06' E 028°39'0 0.0
2017-Dec-02 14:01N 44°06' E 028°39'0 0.0
2017-Dec-02 13:31N 44°06' E 028°39'0 0.0
2017-Dec-02 13:01N 44°06' E 028°39'0 0.0
2017-Dec-02 12:31N 44°06' E 028°39'0 0.0
2017-Dec-02 12:01N 44°06' E 028°39'0 0.0
2017-Dec-02 11:31N 44°06' E 028°39'0 0.0
2017-Dec-02 11:01N 44°06' E 028°39'0 0.0
2017-Dec-02 10:30N 44°06' E 028°39'0 0.0
2017-Dec-02 10:01N 44°06' E 028°39'0 0.0
2017-Dec-02 09:31N 44°06' E 028°39'0 0.0
2017-Dec-02 09:01N 44°06' E 028°39'0 0.0
2017-Dec-02 08:31N 44°06' E 028°39'0 0.0
2017-Dec-02 08:00N 44°06' E 028°39'0 0.0
2017-Dec-02 07:31N 44°06' E 028°39'0 0.0
2017-Dec-02 07:01N 44°06' E 028°39'0 0.0
2017-Dec-02 06:31N 44°06' E 028°39'0 0.0
2017-Dec-02 06:01N 44°06' E 028°39'0 0.0
2017-Dec-02 05:31N 44°06' E 028°39'0 0.0
2017-Dec-02 05:01N 44°06' E 028°39'0 0.0
2017-Dec-02 04:31N 44°06' E 028°39'0 0.0
2017-Dec-02 04:01N 44°06' E 028°39'0 0.0
2017-Dec-02 03:31N 44°06' E 028°39'0 0.0
2017-Dec-02 03:01N 44°06' E 028°39'0 0.0
2017-Dec-02 02:30N 44°06' E 028°39'0 0.0
2017-Dec-02 02:01N 44°06' E 028°39'0 0.0
2017-Dec-02 01:31N 44°06' E 028°39'0 0.0
2017-Dec-02 01:01N 44°06' E 028°39'0 0.0
2017-Dec-02 00:31N 44°06' E 028°39'0 0.0
2017-Dec-02 00:01N 44°06' E 028°39'0 0.0
2017-Dec-01 23:31N 44°06' E 028°39'0 0.0
2017-Dec-01 23:00N 44°06' E 028°39'0 0.0
2017-Dec-01 22:31N 44°06' E 028°39'0 0.0
2017-Dec-01 22:01N 44°06' E 028°39'0 0.0
2017-Dec-01 21:31N 44°06' E 028°39'0 0.0
2017-Dec-01 21:01N 44°06' E 028°39'1 1.1
2017-Dec-01 20:30N 44°07' E 028°39'0 0.0
2017-Dec-01 20:01N 44°07' E 028°39'0 0.0
2017-Dec-01 19:31N 44°07' E 028°39'0 0.0
2017-Dec-01 19:01N 44°07' E 028°39'0 0.0
2017-Dec-01 18:31N 44°07' E 028°39'0 0.0
2017-Dec-01 18:01N 44°07' E 028°39'0 0.0
2017-Dec-01 17:31N 44°07' E 028°39'0 0.0
2017-Dec-01 17:00N 44°07' E 028°39'0 0.0
2017-Dec-01 16:31N 44°07' E 028°39'0 0.0
2017-Dec-01 16:01N 44°07' E 028°39'0 0.0
2017-Dec-01 15:31N 44°07' E 028°39'0 0.0
2017-Dec-01 15:01N 44°07' E 028°39'0 0.0
2017-Dec-01 14:30N 44°07' E 028°39'0 0.0
2017-Dec-01 14:01N 44°07' E 028°39'0 0.0
2017-Dec-01 13:30N 44°07' E 028°39'0 0.0
2017-Dec-01 13:01N 44°07' E 028°39'0 0.0
2017-Dec-01 12:30N 44°07' E 028°39'0 0.0
2017-Dec-01 12:01N 44°07' E 028°39'0 0.0
2017-Dec-01 11:30N 44°07' E 028°39'0 0.0
2017-Dec-01 11:01N 44°07' E 028°39'0 0.0
2017-Dec-01 10:31N 44°07' E 028°39'0 0.0
2017-Dec-01 10:00N 44°07' E 028°39'0 0.0
2017-Dec-01 09:31N 44°07' E 028°39'0 0.0
2017-Dec-01 09:01N 44°07' E 028°39'0 0.0
2017-Dec-01 08:31N 44°07' E 028°39'0 0.0
2017-Dec-01 08:01N 44°07' E 028°39'0 0.0
2017-Dec-01 07:30N 44°07' E 028°39'0 0.0
2017-Dec-01 07:01N 44°07' E 028°39'0 0.0
2017-Dec-01 06:31N 44°07' E 028°39'0 0.0
2017-Dec-01 06:01N 44°07' E 028°39'0 0.0
2017-Dec-01 05:30N 44°07' E 028°39'0 0.0
2017-Dec-01 05:01N 44°07' E 028°39'0 0.0
2017-Dec-01 04:31N 44°07' E 028°39'0 0.0
2017-Dec-01 04:01N 44°07' E 028°39'0 0.0
2017-Dec-01 03:31N 44°07' E 028°39'0 0.0
2017-Dec-01 03:01N 44°07' E 028°39'0 0.0
2017-Dec-01 02:31N 44°07' E 028°39'0 0.0
2017-Dec-01 02:01N 44°07' E 028°39'0 0.0
2017-Dec-01 01:30N 44°07' E 028°39'0 0.0
2017-Dec-01 01:01N 44°07' E 028°39'0 0.0
2017-Dec-01 00:31N 44°07' E 028°39'0 0.0
2017-Dec-01 00:01N 44°07' E 028°39'0 0.0
2017-Nov-30 23:31N 44°07' E 028°39'0 0.0
2017-Nov-30 23:01N 44°07' E 028°39'0 0.0
2017-Nov-30 22:31N 44°07' E 028°39'0 0.0
2017-Nov-30 22:01N 44°07' E 028°39'0 0.0
2017-Nov-30 21:31N 44°07' E 028°39'0 0.0
2017-Nov-30 21:01N 44°07' E 028°39'0 0.0
2017-Nov-30 20:31N 44°07' E 028°39'0 0.0
2017-Nov-30 20:01N 44°07' E 028°39'0 0.0
2017-Nov-30 19:31N 44°07' E 028°39'0 0.0
2017-Nov-30 19:01N 44°07' E 028°39'0 0.0
2017-Nov-30 18:30N 44°07' E 028°39'0 0.0
2017-Nov-30 18:00N 44°07' E 028°39'0 0.0
2017-Nov-30 17:31N 44°07' E 028°39'0 0.0
2017-Nov-30 17:00N 44°07' E 028°39'0 0.0
2017-Nov-30 16:30N 44°07' E 028°39'0 0.0
2017-Nov-30 16:01N 44°07' E 028°39'0 0.0
2017-Nov-30 15:30N 44°07' E 028°39'0 0.0
2017-Nov-30 15:01N 44°07' E 028°39'0 0.0
2017-Nov-30 14:31N 44°07' E 028°39'0 0.0
2017-Nov-30 14:00N 44°07' E 028°39'0 0.0
2017-Nov-30 13:31N 44°07' E 028°39'0 0.0
2017-Nov-30 13:01N 44°07' E 028°39'0 0.0
2017-Nov-30 12:31N 44°07' E 028°39'0 0.0
2017-Nov-30 12:01N 44°07' E 028°39'0 0.0
2017-Nov-30 11:31N 44°07' E 028°39'0 0.0
2017-Nov-30 11:01N 44°07' E 028°39'0 0.0
2017-Nov-30 10:31N 44°07' E 028°39'0 0.0
2017-Nov-30 10:00N 44°07' E 028°39'0 0.0
2017-Nov-30 09:31N 44°07' E 028°39'0 0.0
2017-Nov-30 09:01N 44°07' E 028°39'0 0.0
2017-Nov-30 08:31N 44°07' E 028°39'0 0.0
2017-Nov-30 08:01N 44°07' E 028°39'0 0.0
2017-Nov-30 07:31N 44°07' E 028°39'0 0.0
2017-Nov-30 07:01N 44°07' E 028°39'0 0.0
2017-Nov-30 06:31N 44°07' E 028°39'0 0.0
2017-Nov-30 06:01N 44°07' E 028°39'0 0.0
2017-Nov-30 05:31N 44°07' E 028°39'0 0.0
2017-Nov-30 05:01N 44°07' E 028°39'0 0.0
2017-Nov-30 04:31N 44°07' E 028°39'0 0.0
2017-Nov-30 04:00N 44°07' E 028°39'0 0.0
2017-Nov-30 03:31N 44°07' E 028°39'0 0.0
2017-Nov-30 03:01N 44°07' E 028°39'0 0.0
2017-Nov-30 02:31N 44°07' E 028°39'0 0.0
2017-Nov-30 02:01N 44°07' E 028°39'0 0.0
2017-Nov-30 01:30N 44°07' E 028°39'0 0.0
2017-Nov-30 01:01N 44°07' E 028°39'0 0.0
2017-Nov-30 00:30N 44°07' E 028°39'0 0.0
2017-Nov-30 00:01N 44°07' E 028°39'0 0.0
2017-Nov-29 23:31N 44°07' E 028°39'0 0.0
2017-Nov-29 23:01N 44°07' E 028°39'0 0.0
2017-Nov-29 22:31N 44°07' E 028°39'0 0.0
2017-Nov-29 22:01N 44°07' E 028°39'0 0.0
2017-Nov-29 21:31N 44°07' E 028°39'0 0.0
2017-Nov-29 21:01N 44°07' E 028°39'0 0.0
2017-Nov-29 20:31N 44°07' E 028°39'0 0.0
2017-Nov-29 20:01N 44°07' E 028°39'0 0.0
2017-Nov-29 19:31N 44°07' E 028°39'0 0.0
2017-Nov-29 19:01N 44°07' E 028°39'0 0.0
2017-Nov-29 18:31N 44°07' E 028°39'0 0.0
2017-Nov-29 18:01N 44°07' E 028°39'0 0.0
2017-Nov-29 17:30N 44°07' E 028°39'0 0.0
2017-Nov-29 17:01N 44°07' E 028°39'0 0.0
2017-Nov-29 16:31N 44°07' E 028°39'0 0.0
2017-Nov-29 16:01N 44°07' E 028°39'0 0.0
2017-Nov-29 15:31N 44°07' E 028°39'0 0.0
2017-Nov-29 15:01N 44°07' E 028°39'0 0.0
2017-Nov-29 14:30N 44°07' E 028°39'0 0.0
2017-Nov-29 14:01N 44°07' E 028°39'0 0.0
2017-Nov-29 13:30N 44°07' E 028°39'0 0.0
2017-Nov-29 13:01N 44°07' E 028°39'0 0.0
2017-Nov-29 12:31N 44°07' E 028°39'0 0.0
2017-Nov-29 12:01N 44°07' E 028°39'0 0.0
2017-Nov-29 11:31N 44°07' E 028°39'0 0.0
2017-Nov-29 11:01N 44°07' E 028°39'0 0.0
2017-Nov-29 10:31N 44°07' E 028°39'0 0.0
2017-Nov-29 10:01N 44°07' E 028°39'0 0.0
2017-Nov-29 09:31N 44°07' E 028°39'0 0.0
2017-Nov-29 09:00N 44°07' E 028°39'0 0.0
2017-Nov-29 08:31N 44°07' E 028°39'0 0.0
2017-Nov-29 08:01N 44°07' E 028°39'0 0.0
2017-Nov-29 07:31N 44°07' E 028°39'0 0.0
2017-Nov-29 07:01N 44°07' E 028°39'0 0.0
2017-Nov-29 06:30N 44°07' E 028°39'0 0.0
2017-Nov-29 06:01N 44°07' E 028°39'0 0.0
2017-Nov-29 05:30N 44°07' E 028°39'0 0.0
2017-Nov-29 05:01N 44°07' E 028°39'0 0.0
2017-Nov-29 04:31N 44°07' E 028°39'0 0.0
2017-Nov-29 04:00N 44°07' E 028°39'0 0.0
2017-Nov-29 03:30N 44°07' E 028°39'0 0.0
2017-Nov-29 03:01N 44°07' E 028°39'0 0.0
2017-Nov-29 02:31N 44°07' E 028°39'0 0.0
2017-Nov-29 02:01N 44°07' E 028°39'0 0.0
2017-Nov-29 01:31N 44°07' E 028°39'0 0.0
2017-Nov-29 01:01N 44°07' E 028°39'0 0.0
2017-Nov-29 00:31N 44°07' E 028°39'0 0.0
2017-Nov-29 00:01N 44°07' E 028°39'0 0.0
2017-Nov-28 23:30N 44°07' E 028°39'0 0.0
2017-Nov-28 23:00N 44°07' E 028°39'0 0.0
2017-Nov-28 22:30N 44°07' E 028°39'0 0.0
2017-Nov-28 22:01N 44°07' E 028°39'0 0.0
2017-Nov-28 21:31N 44°07' E 028°39'0 0.0
2017-Nov-28 21:01N 44°07' E 028°39'0 0.0
2017-Nov-28 20:30N 44°07' E 028°39'0 0.0
2017-Nov-28 20:01N 44°07' E 028°39'0 0.0
2017-Nov-28 19:31N 44°07' E 028°39'0 0.0
2017-Nov-28 19:01N 44°07' E 028°39'0 0.0
2017-Nov-28 18:31N 44°07' E 028°39'0 0.0
2017-Nov-28 18:01N 44°07' E 028°39'0 0.0
2017-Nov-28 17:31N 44°07' E 028°39'0 0.0
2017-Nov-28 17:01N 44°07' E 028°39'0 0.0
2017-Nov-28 16:31N 44°07' E 028°39'0 0.0
2017-Nov-28 16:01N 44°07' E 028°39'0 0.0
2017-Nov-28 15:01N 44°07' E 028°39'0 0.0
2017-Nov-28 14:31N 44°07' E 028°39'0 0.0
2017-Nov-28 14:00N 44°07' E 028°39'0 0.0
2017-Nov-28 13:31N 44°07' E 028°39'0 0.0
2017-Nov-28 13:00N 44°07' E 028°39'0 0.0
2017-Nov-28 12:31N 44°07' E 028°39'0 0.0
2017-Nov-28 12:01N 44°07' E 028°39'0 0.0
2017-Nov-28 11:31N 44°07' E 028°39'0 0.0
2017-Nov-28 11:00N 44°07' E 028°39'0 0.0
2017-Nov-28 10:31N 44°07' E 028°39'0 0.0
2017-Nov-28 10:01N 44°07' E 028°39'0 0.0
2017-Nov-28 09:31N 44°07' E 028°39'0 0.0
2017-Nov-28 09:01N 44°07' E 028°39'0 0.0
2017-Nov-28 08:31N 44°07' E 028°39'0 0.0
2017-Nov-28 08:01N 44°07' E 028°39'0 0.0
2017-Nov-28 07:31N 44°07' E 028°39'0 0.0
2017-Nov-28 07:01N 44°07' E 028°39'0 0.0
2017-Nov-28 06:31N 44°07' E 028°39'0 0.0
2017-Nov-28 06:01N 44°07' E 028°39'0 0.0
2017-Nov-28 05:30N 44°07' E 028°39'0 0.0
2017-Nov-28 04:31N 44°07' E 028°39'0 0.0
2017-Nov-28 04:01N 44°07' E 028°39'0 0.0
2017-Nov-28 03:30N 44°07' E 028°39'0 0.0
2017-Nov-28 03:00N 44°07' E 028°39'0 0.0
2017-Nov-28 02:31N 44°07' E 028°39'0 0.0
2017-Nov-28 02:01N 44°07' E 028°39'0 0.0
2017-Nov-28 01:31N 44°07' E 028°39'0 0.0
2017-Nov-28 01:00N 44°07' E 028°39'0 0.0
2017-Nov-28 00:30N 44°07' E 028°39'0 0.0
2017-Nov-28 00:01N 44°07' E 028°39'0 0.0
2017-Nov-27 23:31N 44°07' E 028°39'0 0.0
2017-Nov-27 23:01N 44°07' E 028°39'0 0.0
2017-Nov-27 22:31N 44°07' E 028°39'0 0.0
2017-Nov-27 22:01N 44°07' E 028°39'0 0.0
2017-Nov-27 21:31N 44°07' E 028°39'0 0.0
2017-Nov-27 21:00N 44°07' E 028°39'0 0.0
2017-Nov-27 20:31N 44°07' E 028°39'0 0.0
2017-Nov-27 20:01N 44°07' E 028°39'0 0.0
2017-Nov-27 19:31N 44°07' E 028°39'0 0.0
2017-Nov-27 19:00N 44°07' E 028°39'  

Dump ship's entire track history